WetterOnline ( https://www.wetteronline.de )

Wetter aktuell Lieberose

Aktuelles Wetter: Cottbus (70m)

6-stündlich | Neueste Meldungen
Ortszeit Temperatur Wetter
So, 21.04. 14:00 8.0° C bewölkt
So, 21.04. 8:00 1.6° C bedeckt
So, 21.04. 2:00 0.8° C leicht bewölkt
Sa, 20.04. 20:00 5.7° C bewölkt
Sa, 20.04. 14:00 6.2° C bedeckt
Sa, 20.04. 8:00 5.4° C leichter Regen
Sa, 20.04. 2:00 5.6° C leichter Regen
Fr, 19.04. 20:00 7.5° C bedeckt
Ortszeit Temperatur Wetter
So, 21.04. 17:00 8.3° C bewölkt
So, 21.04. 16:30 8.1° C bedeckt
So, 21.04. 16:20 8.1° C bedeckt
So, 21.04. 16:10 7.6° C bedeckt
So, 21.04. 16:00 8.5° C bewölkt
So, 21.04. 15:50 8.5° C bewölkt
So, 21.04. 15:30 8.1° C bedeckt
So, 21.04. 15:00 7.7° C bedeckt
So, 21.04. 14:30 7.8° C bewölkt
So, 21.04. 14:00 8.0° C bewölkt
Ortszeit Relative Feuchte Sichtweite
So, 21.04. 14:00 42% >70 km
So, 21.04. 8:00 71% 40 km
So, 21.04. 2:00 90% 30 km
Sa, 20.04. 20:00 67% 55 km
Sa, 20.04. 14:00 59% 60 km
Sa, 20.04. 8:00 93% 11 km
Sa, 20.04. 2:00 93% 9 km
Fr, 19.04. 20:00 82% >70 km
Ortszeit Relative Feuchte Sichtweite
So, 21.04. 17:00 44% >70 km
So, 21.04. 16:30 44% >70 km
So, 21.04. 16:20 44% -
So, 21.04. 16:10 42% -
So, 21.04. 16:00 42% 65 km
So, 21.04. 15:50 42% -
So, 21.04. 15:30 41% 65 km
So, 21.04. 15:00 44% >70 km
So, 21.04. 14:30 44% >70 km
So, 21.04. 14:00 42% >70 km
Ortszeit Niederschlagsmenge Niederschlagsart
So, 21.04. 14:00 0.0 l/m2 in 6 Std. -
So, 21.04. 8:00 0.0 l/m2 in 12 Std. -
So, 21.04. 2:00 0.0 l/m2 in 6 Std. -
Sa, 20.04. 20:00 1 l/m2 in 12 Std. Regen
Sa, 20.04. 14:00 0.8 l/m2 in 6 Std. Regen
Sa, 20.04. 8:00 3 l/m2 in 12 Std. Regen
Sa, 20.04. 2:00 0.6 l/m2 in 6 Std. Regen
Fr, 19.04. 20:00 3 l/m2 in 12 Std. Regen
Ortszeit Niederschlagsmenge Niederschlagsart
So, 21.04. 17:00 0.0 l/m2 in 1 Std. -
So, 21.04. 16:30 0.0 l/m2 in 30 Min -
So, 21.04. 16:20 keine Meldung -
So, 21.04. 16:10 keine Meldung -
So, 21.04. 16:00 0.0 l/m2 in 1 Std. -
So, 21.04. 15:50 keine Meldung -
So, 21.04. 15:30 0.0 l/m2 in 30 Min -
So, 21.04. 15:00 0.0 l/m2 in 1 Std. -
So, 21.04. 14:30 0.0 l/m2 in 30 Min -
So, 21.04. 14:00 0.0 l/m2 in 1 Std. -
Ortszeit Stärke Spitze Richtung
km/h Bft. km/h Grad Sektor
So, 21.04. 14:00 14 3 36 50° NO
So, 21.04. 8:00 11 2 22 70° O
So, 21.04. 2:00 4 1 11 70° O
Sa, 20.04. 20:00 4 1 25 40° NO
Sa, 20.04. 14:00 13 3 43 10° N
Sa, 20.04. 8:00 11 2 22 350° N
Sa, 20.04. 2:00 7 2 25 250° W
Fr, 19.04. 20:00 14 3 47 230° SW
Ortszeit Stärke Spitze Richtung
km/h Bft. km/h Grad Sektor
So, 21.04. 17:00 14 3 32 40° NO
So, 21.04. 16:30 15 3 33 50° NO
So, 21.04. 16:20 15 3 - 50° NO
So, 21.04. 16:10 14 3 - 40° NO
So, 21.04. 16:00 14 3 32 50° NO
So, 21.04. 15:50 14 3 - 50° NO
So, 21.04. 15:30 17 3 31 50° NO
So, 21.04. 15:00 14 3 36 30° NO
So, 21.04. 14:30 17 3 37 40° NO
So, 21.04. 14:00 14 3 32 50° NO
Ortszeit Untergrenze Bedeckung Gattung
total tief tief mittel hoch
So, 21.04. 14:00 1500 m 7/8 7/8 - - -
So, 21.04. 8:00 1440 m 8/8 8/8 - - -
So, 21.04. 2:00 1800 m 2/8 2/8 - - -
Sa, 20.04. 20:00 1500 m 7/8 7/8 - - -
Sa, 20.04. 14:00 840 m 8/8 8/8 - - -
Sa, 20.04. 8:00 240 m 7/8 7/8 - - -
Sa, 20.04. 2:00 330 m 8/8 8/8 - - -
Fr, 19.04. 20:00 600 m 8/8 8/8 - - -
Ortszeit Bedeckungsgrad in Achtel und Wolkenuntergrenze
So, 21.04. 17:00 7(1500m) 7(2100m) 7(7200m)
So, 21.04. 16:30 7(1800m) 8(2100m) 8(7200m)
So, 21.04. 16:20 7(1800m) 8(2100m) 8(7200m)
So, 21.04. 16:10 8
So, 21.04. 16:00 7(1800m)
So, 21.04. 15:50 7(1800m)
So, 21.04. 15:30 8(1800m)
So, 21.04. 15:00 8(1500m)
So, 21.04. 14:30 3(1470m) 7(1500m)
So, 21.04. 14:00 7(1500m)
Ortszeit Luftdruck NN (hPa) Tendenz (hPa in 3 Std.)
So, 21.04. 14:00 1022 - 0,5
So, 21.04. 8:00 1022 + 1,3
So, 21.04. 2:00 1020 + 0,5
Sa, 20.04. 20:00 1018 + 1,0
Sa, 20.04. 14:00 1016 + 3,0
Sa, 20.04. 8:00 1008 + 3,0
Sa, 20.04. 2:00 1003 + 1,1
Fr, 19.04. 20:00 1002 - 1,0
Ortszeit Luftdruck NN (hPa) Tendenz (hPa in 3 Std.)
So, 21.04. 17:00 1022 - 0,1
So, 21.04. 16:30 1022 - 0,2
So, 21.04. 16:20 1022 keine Meldung
So, 21.04. 16:10 1022 keine Meldung
So, 21.04. 16:00 1022 - 0,3
So, 21.04. 15:50 1022 keine Meldung
So, 21.04. 15:30 1022 - 0,4
So, 21.04. 15:00 1022 - 0,4
So, 21.04. 14:30 1022 - 0,3
So, 21.04. 14:00 1022 - 0,5
Ortszeit Schneehöhe (cm)
So, 21.04. 14:00 0
So, 21.04. 8:00 0
So, 21.04. 2:00 0
Sa, 20.04. 20:00 0
Sa, 20.04. 14:00 0
Sa, 20.04. 8:00 0
Sa, 20.04. 2:00 0
Fr, 19.04. 20:00 0
Ortszeit Schneehöhe (cm)
So, 21.04. 17:00 0
So, 21.04. 16:30 0
So, 21.04. 16:20 0
So, 21.04. 16:10 -
So, 21.04. 16:00 0
So, 21.04. 15:50 0
So, 21.04. 15:30 0
So, 21.04. 15:00 0
So, 21.04. 14:30 0
So, 21.04. 14:00 0
Link zu dieser Seite / Seite empfehlen

Das Wetter in ...